logo
App data

East India Company

In East India Company, players will enjoy building the World's most powerful trading empire & engaging in vigorous battles in both single player & multiplayer modes, all within a breathtaking cinematic game environment.
Store | Hub | SteamDB | Site
Developer: Nitro Games Publisher: Nitro Games
Genre: Strategy
Languages: English, French, German
Tags: Strategy (39), Economy (8), Historical (7), Trading (5), Naval (5)
Category: Single-player, Multi-player
Release date: Jul 31, 2009
Price: $9.99
Old userscore: 48% Metascore: 67%
Owners: 50,000 .. 100,000
Followers: 457
Peak concurrent players yesterday: 8
YouTube stats: 2 views and 0 comments for videos uploaded last week, 0 new videos uploaded yesterday.

Steam Spy is still in beta, so expect major bugs.

Owners data:

Access restricted.

This feature is only available to users with special access rights. Sorry.

If you want to proceed, you need to register or log in first and then back Steam Spy on Patreon. Look for Indie or Pro pledge.

Don't forget to use the same email as on Steam Spy!

Audience in 2 weeks:

Access restricted.

This feature is only available to users with special access rights. Sorry.

If you want to proceed, you need to register or log in first and then back Steam Spy on Patreon. Look for Indie or Pro pledge.

Don't forget to use the same email as on Steam Spy!

Peak daily concurrent players:

CCU data courtesy of SteamDB. Used with permission.

Hourly concurrent players:

Daily Twitch stats:

Hourly Twitch stats:

YouTube:

The views data is based on top 50 videos uploaded last week. Actual number of views might be more than the number shown.

The displayed number of videos uploaded yesterday is limited to 50, so if there were more videos uploaded, the number will still show 50.

If the game has commonly used word as its name (like "FEAR" or "Volume") its number of Youtube views might be wrong.

Games similar to this one:

# Game Release date
Price
Score rank
(Userscore / Metascore)
Owners
Players
Playtime (Median)
1 Battle Academy Apr 16, 2014 $14.99N/A (N/A)20,000 .. 50,0000%00:00 (00:00)
2 Demolition Inc. Sep 19, 2011 $5.99N/A (N/A)50,000 .. 100,0000%00:00 (00:00)
3 Company of Heroes: Opposing Fronts Sep 24, 2007 $19.99N/A (N/A/87%)2,000,000 .. 5,000,0000%00:00 (00:00)
4 Wyrmsun May 22, 2015 FreeN/A (N/A)20,000 .. 50,0000%00:00 (00:00)
5 Tiny Troopers Aug 24, 2012 $4.99N/A (N/A/57%)100,000 .. 200,0000%00:00 (00:00)
6 Sacrifice Nov 1, 2000 $9.99N/A (N/A/89%)50,000 .. 100,0000%00:00 (00:00)
7 Joint Task Force Mar 27, 2007 $7.99N/A (N/A/68%)20,000 .. 50,0000%00:00 (00:00)
8 Perimeter Apr 3, 2014 $3.99N/A (N/A/77%)20,000 .. 50,0000%00:00 (00:00)
9 Cossacks II: Napoleonic Wars Aug 26, 2011 $4.99N/A (N/A/73%)50,000 .. 100,0000%00:00 (00:00)
10 Supreme Commander Sep 28, 2011 $12.99N/A (N/A/86%)1,000,000 .. 2,000,0000%00:00 (00:00)
11 Darwinia Jul 14, 2005 $9.99N/A (N/A/84%)500,000 .. 1,000,0000%00:00 (00:00)
12 Cthulhu Realms Jul 1, 2016 FreeN/A (N/A)50,000 .. 100,0000%00:00 (00:00)
13 Planets Under Attack Sep 27, 2012 $9.99N/A (N/A)500,000 .. 1,000,0001.79%02:32 (00:50)
14 The Guild Gold Edition Sep 9, 2014 $9.99N/A (N/A/82%)100,000 .. 200,0000%00:00 (00:00)
15 Commandos: Beyond the Call of Duty Apr 7, 1999 $4.99N/A (N/A)500,000 .. 1,000,0000%00:00 (00:00)
16 Rooks Keep Dec 5, 2014 $7.99N/A (N/A)0 .. 20,0000%00:00 (00:00)
17 American Conquest Aug 26, 2011 $4.99N/A (N/A/76%)50,000 .. 100,0000%00:00 (00:00)
18 BC Kings Sep 15, 2008 $4.99N/A (N/A)20,000 .. 50,0000%00:00 (00:00)
19 ThreadSpace: Hyperbol Jul 12, 2007 $4.99N/A (N/A)20,000 .. 50,0000%00:00 (00:00)
20 ROD: Revolt Of Defense Aug 12, 2016 $0.99N/A (N/A)20,000 .. 50,0000%00:00 (00:00)
21 Sang-Froid - Tales of Werewolves Apr 5, 2013 FreeN/A (N/A/79%)200,000 .. 500,0000%00:00 (00:00)
22 Rush for Berlin Gold Oct 29, 2009 $4.99N/A (N/A/76%)20,000 .. 50,0000%00:00 (00:00)
23 Battlestations: Midway Jan 30, 2007 $6.99N/A (N/A/76%)200,000 .. 500,0000%00:00 (00:00)
24 War in a Box: Paper Tanks Jul 4, 2014 $4.99N/A (N/A)50,000 .. 100,0000%00:00 (00:00)
25 American Conquest: Fight Back Aug 26, 2011 $4.99N/A (N/A/66%)50,000 .. 100,0000%00:00 (00:00)
26 Heroes of Might & Magic V: Hammers of Fate Oct 10, 2008 $9.99N/A (N/A/66%)100,000 .. 200,0000%00:00 (00:00)
27 Civilization IV: Warlords Apr 6, 2007 $4.99N/A (N/A/84%)1,000,000 .. 2,000,0000%00:00 (00:00)
28 Microgons Mar 27, 2017 FreeN/A (N/A)20,000 .. 50,0000%00:00 (00:00)
29 Eador: Genesis Oct 14, 2013 $1.19N/A (N/A)50,000 .. 100,0000%00:00 (00:00)
30 Robin Hood: The Legend of Sherwood Nov 1, 2002 $7.99N/A (N/A/80%)100,000 .. 200,0000%00:00 (00:00)
31 Two Worlds II Castle Defense Jun 14, 2011 $9.99N/A (N/A)200,000 .. 500,0000%00:00 (00:00)
32 The Nightmare Cooperative Jul 16, 2014 $4.99N/A (N/A)50,000 .. 100,0000%00:00 (00:00)
33 Disciples III - Resurrection Oct 11, 2011 $14.99N/A (N/A/63%)100,000 .. 200,0000%00:00 (00:00)
34 Red Faction II Aug 6, 2009 $2.49N/A (N/A/64%)200,000 .. 500,0000%00:00 (00:00)
35 Full Spectrum Warrior: Ten Hammers Jul 17, 2007 $9.99N/A (N/A/70%)100,000 .. 200,0000%00:00 (00:00)
36 Steam 360 Video Player May 10, 2017 FreeN/A (N/A)100,000 .. 200,0000%00:00 (00:00)
37 UFO: Afterlight Jan 6, 2014 $6.99N/A (N/A/71%)200,000 .. 500,0000%00:00 (00:00)
38 Age of Wonders Oct 2010 $5.99N/A (N/A)100,000 .. 200,0000%00:00 (00:00)
39 X-COM: Apocalypse Jul 15, 1997 $1.24N/A (N/A)500,000 .. 1,000,0000%00:00 (00:00)
40 Hell Nov 13, 2014 $29.99N/A (N/A)0 .. 20,0000%00:00 (00:00)
41 Crusader Kings Complete Feb 14, 2012 $9.99N/A (N/A/73%)50,000 .. 100,0000%00:00 (00:00)
42 Imperium Romanum Gold Edition Nov 25, 2008 $9.99N/A (N/A/63%)100,000 .. 200,0000%00:00 (00:00)
43 Rome: Total War - Alexander Aug 28, 2007 $12.99N/A (N/A/79%)500,000 .. 1,000,0000%00:00 (00:00)
44 Earth 2140 Nov 15, 2013 $4.99N/A (N/A)200,000 .. 500,0002.27%01:31 (00:30)
45 Age of Wonders II: The Wizard's Throne Oct 2010 $9.99N/A (N/A/86%)50,000 .. 100,0000%00:00 (00:00)
46 X-COM: Interceptor Jun 15, 1998 $1.24N/A (N/A)20,000 .. 50,0000%00:00 (00:00)
47 Magnifico Dec 2, 2014 $4.99N/A (N/A)50,000 .. 100,0000%00:00 (00:00)
48 Cubemen Mar 16, 2012 $3.99N/A (N/A/74%)100,000 .. 200,0000%00:00 (00:00)
49 Europa Universalis: Rome - Gold Edition Dec 18, 2008 $9.99N/A (N/A/79%)50,000 .. 100,0000%00:00 (00:00)
50 Cossacks: Art of War Aug 26, 2011 $4.99N/A (N/A)50,000 .. 100,0000%00:00 (00:00)
51 Void Destroyer Jan 20, 2015 $9.99N/A (N/A)50,000 .. 100,0000%00:00 (00:00)
52 Swords and Soldiers HD Dec 2, 2010 $9.99N/A (N/A)100,000 .. 200,0000%00:00 (00:00)
53 X-COM: Enforcer Apr 19, 2001 $1.24N/A (N/A/65%)100,000 .. 200,0000%00:00 (00:00)
54 Survivor Squad: Gauntlets Nov 16, 2015 $4.99N/A (N/A)20,000 .. 50,0000%00:00 (00:00)
55 Viking: Battle for Asgard Oct 17, 2012 $14.99N/A (N/A)1,000,000 .. 2,000,0000%00:00 (00:00)
56 Grand Ages: Rome Mar 20, 2009 $9.99N/A (N/A/72%)200,000 .. 500,0000%00:00 (00:00)
57 Cossacks: European Wars Aug 26, 2011 $4.99N/A (N/A/74%)50,000 .. 100,0000%00:00 (00:00)
58 Praetorians Mar 10, 2003 $4.99N/A (N/A/78%)100,000 .. 200,0000%00:00 (00:00)
59 Hydrophobia: Prophecy May 9, 2011 $4.99N/A (N/A/64%)200,000 .. 500,0000%00:00 (00:00)
60 Warhammer 40,000: Dawn of War – Winter Assault Aug 7, 2007 $12.99N/A (N/A)500,000 .. 1,000,0000%00:00 (00:00)
61 SHOGUN: Total War - Collection Jun 13, 2000 $9.99N/A (N/A)100,000 .. 200,0000%00:00 (00:00)
62 Galactic Civilizations I: Ultimate Edition Aug 14, 2012 $9.99N/A (N/A/83%)200,000 .. 500,0000%00:00 (00:00)
63 Dwarfs!? May 4, 2011 $9.99N/A (N/A)200,000 .. 500,0000%00:00 (00:00)
64 Cossacks II: Battle for Europe Aug 26, 2011 $4.99N/A (N/A/69%)100,000 .. 200,00033.33%02:06 (01:03)

Tags over time:

Access restricted.

This feature is only available to users with special access rights. Sorry.

If you want to proceed, you need to register or log in first and then back Steam Spy on Patreon. Look for Indie or Pro pledge.

Don't forget to use the same email as on Steam Spy!

Owners of this game also own:

Access restricted.

This feature is only available to users with special access rights. Sorry.

If you want to proceed, you need to register or log in first and then back Steam Spy on Patreon. Look for Indie or Pro pledge.

Don't forget to use the same email as on Steam Spy!

Playtime distribution:

Access restricted.

This feature is only available to users with special access rights. Sorry.

If you want to proceed, you need to register or log in first and then back Steam Spy on Patreon. Look for Indie or Pro pledge.

Don't forget to use the same email as on Steam Spy!

Playtime (2 weeks):

Access restricted.

This feature is only available to users with special access rights. Sorry.

If you want to proceed, you need to register or log in first and then back Steam Spy on Patreon. Look for Indie or Pro pledge.

Don't forget to use the same email as on Steam Spy!

User reviews:

Login required.

Please register or log in to see this information.